Augusta, Maine
Current Conditions -  °F | °C
As of 3:53 AM on Sunday 26 Oct 2014 (Local Time) from KAUG Reporting Station
Haze Haze  
Wind Chill: 45°   Ceiling: Unl
Heat Index: 45°   Visibility: 1mi
Dew Point: 44°   Wind: 3mph
Humidity: 97%   Direction: 200°SSW
Pressure: 29.39"   Gusts: NA
Location:  44.32°N, 69.78°W
Report Text: KAUG 260753Z AUTO 20003KT 1SM BR SCT002 SCT050 07/07 A2939 RMK AO2 SLP954 T00720067
Loading
Personal Weather Stations






























Interactive Weather Map
Tropical Storm Tracking
New forecast layout! Learn more

10-Day Weather Forecast

Advertisements
Track Severe Weather on mobile